sensor_id;sensor_type;location;lat;lon;timestamp;P1;durP1;ratioP1;P2;durP2;ratioP2
16512;SDS011;8369;48.030;11.598;2023-05-13T00:02:25;9.60;;;6.63;;
16512;SDS011;8369;48.030;11.598;2023-05-13T00:04:51;8.87;;;6.67;;
16512;SDS011;8369;48.030;11.598;2023-05-13T00:07:18;8.83;;;6.80;;
16512;SDS011;8369;48.030;11.598;2023-05-13T00:09:44;8.20;;;6.73;;
16512;SDS011;8369;48.030;11.598;2023-05-13T00:12:19;9.50;;;6.47;;
16512;SDS011;8369;48.030;11.598;2023-05-13T00:14:46;7.87;;;6.43;;
16512;SDS011;8369;48.030;11.598;2023-05-13T00:17:12;8.10;;;6.67;;
16512;SDS011;8369;48.030;11.598;2023-05-13T00:19:38;9.00;;;6.87;;
16512;SDS011;8369;48.030;11.598;2023-05-13T00:22:05;8.43;;;6.80;;
16512;SDS011;8369;48.030;11.598;2023-05-13T00:24:33;9.73;;;7.27;;
16512;SDS011;8369;48.030;11.598;2023-05-13T00:27:00;8.67;;;7.17;;
16512;SDS011;8369;48.030;11.598;2023-05-13T00:29:30;11.30;;;7.27;;
16512;SDS011;8369;48.030;11.598;2023-05-13T00:31:57;8.73;;;7.00;;
16512;SDS011;8369;48.030;11.598;2023-05-13T00:34:24;9.70;;;7.13;;
16512;SDS011;8369;48.030;11.598;2023-05-13T00:36:52;8.90;;;6.80;;
16512;SDS011;8369;48.030;11.598;2023-05-13T00:39:18;11.03;;;8.00;;
16512;SDS011;8369;48.030;11.598;2023-05-13T00:41:45;9.20;;;7.07;;
16512;SDS011;8369;48.030;11.598;2023-05-13T00:44:13;12.83;;;7.97;;
16512;SDS011;8369;48.030;11.598;2023-05-13T00:46:39;11.57;;;7.17;;
16512;SDS011;8369;48.030;11.598;2023-05-13T00:49:05;9.63;;;7.63;;
16512;SDS011;8369;48.030;11.598;2023-05-13T00:51:33;9.47;;;7.53;;
16512;SDS011;8369;48.030;11.598;2023-05-13T00:54:04;12.67;;;8.60;;
16512;SDS011;8369;48.030;11.598;2023-05-13T00:56:30;13.00;;;8.67;;
16512;SDS011;8369;48.030;11.598;2023-05-13T00:59:12;14.80;;;8.57;;
16512;SDS011;8369;48.030;11.598;2023-05-13T01:01:51;12.40;;;8.67;;
16512;SDS011;8369;48.030;11.598;2023-05-13T01:07:23;13.50;;;8.50;;
16512;SDS011;8369;48.030;11.598;2023-05-13T01:12:37;13.33;;;8.67;;
16512;SDS011;8369;48.030;11.598;2023-05-13T01:15:15;12.00;;;8.60;;
16512;SDS011;8369;48.030;11.598;2023-05-13T01:20:34;15.37;;;9.67;;
16512;SDS011;8369;48.030;11.598;2023-05-13T01:23:10;15.20;;;9.53;;
16512;SDS011;8369;48.030;11.598;2023-05-13T01:25:37;12.97;;;9.00;;
16512;SDS011;8369;48.030;11.598;2023-05-13T01:28:05;15.53;;;9.63;;
16512;SDS011;8369;48.030;11.598;2023-05-13T01:30:33;12.57;;;8.63;;
16512;SDS011;8369;48.030;11.598;2023-05-13T01:33:00;14.07;;;9.53;;
16512;SDS011;8369;48.030;11.598;2023-05-13T01:35:32;11.13;;;8.57;;
16512;SDS011;8369;48.030;11.598;2023-05-13T01:38:00;14.77;;;9.27;;
16512;SDS011;8369;48.030;11.598;2023-05-13T01:40:28;12.47;;;8.90;;
16512;SDS011;8369;48.030;11.598;2023-05-13T01:42:56;14.40;;;9.23;;
16512;SDS011;8369;48.030;11.598;2023-05-13T01:45:27;13.07;;;8.73;;
16512;SDS011;8369;48.030;11.598;2023-05-13T01:47:54;14.53;;;10.00;;
16512;SDS011;8369;48.030;11.598;2023-05-13T01:50:23;14.77;;;9.63;;
16512;SDS011;8369;48.030;11.598;2023-05-13T01:52:51;16.03;;;9.60;;
16512;SDS011;8369;48.030;11.598;2023-05-13T01:55:18;15.83;;;9.50;;
16512;SDS011;8369;48.030;11.598;2023-05-13T01:57:44;18.17;;;9.70;;
16512;SDS011;8369;48.030;11.598;2023-05-13T02:00:11;13.40;;;9.30;;
16512;SDS011;8369;48.030;11.598;2023-05-13T02:02:38;16.67;;;10.63;;
16512;SDS011;8369;48.030;11.598;2023-05-13T02:05:06;19.10;;;10.07;;
16512;SDS011;8369;48.030;11.598;2023-05-13T02:07:34;13.43;;;9.27;;
16512;SDS011;8369;48.030;11.598;2023-05-13T02:10:01;15.47;;;10.20;;
16512;SDS011;8369;48.030;11.598;2023-05-13T02:12:28;17.83;;;10.30;;
16512;SDS011;8369;48.030;11.598;2023-05-13T02:14:54;13.63;;;10.10;;
16512;SDS011;8369;48.030;11.598;2023-05-13T02:17:22;17.47;;;10.57;;
16512;SDS011;8369;48.030;11.598;2023-05-13T02:19:50;17.33;;;10.37;;
16512;SDS011;8369;48.030;11.598;2023-05-13T02:22:34;16.73;;;10.60;;
16512;SDS011;8369;48.030;11.598;2023-05-13T02:25:02;14.47;;;10.07;;
16512;SDS011;8369;48.030;11.598;2023-05-13T02:27:30;15.87;;;10.80;;
16512;SDS011;8369;48.030;11.598;2023-05-13T02:29:59;17.20;;;10.13;;
16512;SDS011;8369;48.030;11.598;2023-05-13T02:32:26;16.43;;;10.17;;
16512;SDS011;8369;48.030;11.598;2023-05-13T02:34:52;16.13;;;10.20;;
16512;SDS011;8369;48.030;11.598;2023-05-13T02:37:19;17.97;;;10.80;;
16512;SDS011;8369;48.030;11.598;2023-05-13T02:39:46;17.83;;;11.40;;
16512;SDS011;8369;48.030;11.598;2023-05-13T02:42:12;18.03;;;10.97;;
16512;SDS011;8369;48.030;11.598;2023-05-13T02:44:40;20.70;;;10.93;;
16512;SDS011;8369;48.030;11.598;2023-05-13T02:47:09;17.97;;;10.93;;
16512;SDS011;8369;48.030;11.598;2023-05-13T02:49:36;16.80;;;11.30;;
16512;SDS011;8369;48.030;11.598;2023-05-13T02:52:10;17.87;;;11.63;;
16512;SDS011;8369;48.030;11.598;2023-05-13T02:54:39;17.30;;;11.40;;
16512;SDS011;8369;48.030;11.598;2023-05-13T02:57:06;18.90;;;10.93;;
16512;SDS011;8369;48.030;11.598;2023-05-13T02:59:33;19.10;;;11.97;;
16512;SDS011;8369;48.030;11.598;2023-05-13T03:01:59;16.60;;;10.80;;
16512;SDS011;8369;48.030;11.598;2023-05-13T03:04:26;17.00;;;11.17;;
16512;SDS011;8369;48.030;11.598;2023-05-13T03:06:52;15.53;;;10.87;;
16512;SDS011;8369;48.030;11.598;2023-05-13T03:09:21;15.50;;;10.73;;
16512;SDS011;8369;48.030;11.598;2023-05-13T03:11:47;18.10;;;11.73;;
16512;SDS011;8369;48.030;11.598;2023-05-13T03:14:14;18.27;;;11.20;;
16512;SDS011;8369;48.030;11.598;2023-05-13T03:16:41;17.23;;;11.47;;
16512;SDS011;8369;48.030;11.598;2023-05-13T03:19:18;16.87;;;11.33;;
16512;SDS011;8369;48.030;11.598;2023-05-13T03:21:44;18.17;;;12.13;;
16512;SDS011;8369;48.030;11.598;2023-05-13T03:24:13;16.30;;;11.47;;
16512;SDS011;8369;48.030;11.598;2023-05-13T03:26:40;18.07;;;10.67;;
16512;SDS011;8369;48.030;11.598;2023-05-13T03:29:08;16.60;;;11.53;;
16512;SDS011;8369;48.030;11.598;2023-05-13T03:31:35;15.50;;;10.77;;
16512;SDS011;8369;48.030;11.598;2023-05-13T03:34:03;20.10;;;11.67;;
16512;SDS011;8369;48.030;11.598;2023-05-13T03:36:32;15.57;;;10.90;;
16512;SDS011;8369;48.030;11.598;2023-05-13T03:38:59;15.73;;;11.03;;
16512;SDS011;8369;48.030;11.598;2023-05-13T03:44:05;17.07;;;12.20;;
16512;SDS011;8369;48.030;11.598;2023-05-13T03:46:33;16.60;;;11.40;;
16512;SDS011;8369;48.030;11.598;2023-05-13T03:49:01;19.47;;;11.83;;
16512;SDS011;8369;48.030;11.598;2023-05-13T03:51:28;17.50;;;12.10;;
16512;SDS011;8369;48.030;11.598;2023-05-13T03:53:54;18.23;;;11.73;;
16512;SDS011;8369;48.030;11.598;2023-05-13T03:56:21;15.37;;;10.97;;
16512;SDS011;8369;48.030;11.598;2023-05-13T03:58:48;21.03;;;11.70;;
16512;SDS011;8369;48.030;11.598;2023-05-13T04:01:14;17.00;;;11.00;;
16512;SDS011;8369;48.030;11.598;2023-05-13T04:03:41;18.07;;;11.20;;
16512;SDS011;8369;48.030;11.598;2023-05-13T04:06:09;19.43;;;11.17;;
16512;SDS011;8369;48.030;11.598;2023-05-13T04:08:36;19.27;;;11.27;;
16512;SDS011;8369;48.030;11.598;2023-05-13T04:11:03;16.37;;;11.27;;
16512;SDS011;8369;48.030;11.598;2023-05-13T04:13:33;16.37;;;10.93;;
16512;SDS011;8369;48.030;11.598;2023-05-13T04:16:01;18.33;;;11.20;;
16512;SDS011;8369;48.030;11.598;2023-05-13T04:18:29;18.23;;;11.73;;
16512;SDS011;8369;48.030;11.598;2023-05-13T04:21:05;20.17;;;11.90;;
16512;SDS011;8369;48.030;11.598;2023-05-13T04:28:44;16.13;;;11.10;;
16512;SDS011;8369;48.030;11.598;2023-05-13T04:31:11;15.53;;;9.93;;
16512;SDS011;8369;48.030;11.598;2023-05-13T04:33:39;14.47;;;9.50;;
16512;SDS011;8369;48.030;11.598;2023-05-13T04:38:42;16.80;;;10.60;;
16512;SDS011;8369;48.030;11.598;2023-05-13T04:41:17;16.30;;;10.40;;
16512;SDS011;8369;48.030;11.598;2023-05-13T04:43:43;14.63;;;9.97;;
16512;SDS011;8369;48.030;11.598;2023-05-13T04:46:12;15.00;;;9.87;;
16512;SDS011;8369;48.030;11.598;2023-05-13T04:48:38;15.57;;;10.07;;
16512;SDS011;8369;48.030;11.598;2023-05-13T04:51:17;13.50;;;8.97;;
16512;SDS011;8369;48.030;11.598;2023-05-13T04:53:43;14.00;;;9.90;;
16512;SDS011;8369;48.030;11.598;2023-05-13T04:56:09;17.50;;;9.57;;
16512;SDS011;8369;48.030;11.598;2023-05-13T04:58:36;14.53;;;9.83;;
16512;SDS011;8369;48.030;11.598;2023-05-13T05:01:03;13.63;;;9.40;;
16512;SDS011;8369;48.030;11.598;2023-05-13T05:03:29;13.30;;;9.30;;
16512;SDS011;8369;48.030;11.598;2023-05-13T05:05:56;13.40;;;9.97;;
16512;SDS011;8369;48.030;11.598;2023-05-13T05:08:23;17.83;;;10.77;;
16512;SDS011;8369;48.030;11.598;2023-05-13T05:10:49;14.50;;;9.57;;
16512;SDS011;8369;48.030;11.598;2023-05-13T05:13:16;17.37;;;9.87;;
16512;SDS011;8369;48.030;11.598;2023-05-13T05:15:42;15.63;;;9.80;;
16512;SDS011;8369;48.030;11.598;2023-05-13T05:18:10;13.73;;;9.07;;
16512;SDS011;8369;48.030;11.598;2023-05-13T05:20:38;13.83;;;9.80;;
16512;SDS011;8369;48.030;11.598;2023-05-13T05:23:04;13.67;;;9.43;;
16512;SDS011;8369;48.030;11.598;2023-05-13T05:25:38;12.77;;;9.33;;
16512;SDS011;8369;48.030;11.598;2023-05-13T05:28:09;14.60;;;9.77;;
16512;SDS011;8369;48.030;11.598;2023-05-13T05:30:35;13.17;;;9.27;;
16512;SDS011;8369;48.030;11.598;2023-05-13T05:33:07;12.73;;;8.87;;
16512;SDS011;8369;48.030;11.598;2023-05-13T05:35:34;16.40;;;9.10;;
16512;SDS011;8369;48.030;11.598;2023-05-13T05:38:03;14.67;;;9.27;;
16512;SDS011;8369;48.030;11.598;2023-05-13T05:40:31;14.87;;;9.87;;
16512;SDS011;8369;48.030;11.598;2023-05-13T05:42:57;13.60;;;9.33;;
16512;SDS011;8369;48.030;11.598;2023-05-13T05:45:24;16.97;;;9.87;;
16512;SDS011;8369;48.030;11.598;2023-05-13T05:47:51;13.47;;;9.90;;
16512;SDS011;8369;48.030;11.598;2023-05-13T05:50:20;16.13;;;10.37;;
16512;SDS011;8369;48.030;11.598;2023-05-13T05:52:47;19.67;;;9.27;;
16512;SDS011;8369;48.030;11.598;2023-05-13T05:55:13;14.23;;;10.30;;
16512;SDS011;8369;48.030;11.598;2023-05-13T05:57:43;15.20;;;9.97;;
16512;SDS011;8369;48.030;11.598;2023-05-13T06:00:12;14.17;;;9.70;;
16512;SDS011;8369;48.030;11.598;2023-05-13T06:02:40;14.27;;;9.93;;
16512;SDS011;8369;48.030;11.598;2023-05-13T06:05:06;17.37;;;10.83;;
16512;SDS011;8369;48.030;11.598;2023-05-13T06:07:34;14.17;;;9.83;;
16512;SDS011;8369;48.030;11.598;2023-05-13T06:10:01;15.23;;;10.10;;
16512;SDS011;8369;48.030;11.598;2023-05-13T06:12:28;15.07;;;9.80;;
16512;SDS011;8369;48.030;11.598;2023-05-13T06:14:55;17.23;;;10.30;;
16512;SDS011;8369;48.030;11.598;2023-05-13T06:17:22;13.30;;;9.40;;
16512;SDS011;8369;48.030;11.598;2023-05-13T06:19:48;14.40;;;8.90;;
16512;SDS011;8369;48.030;11.598;2023-05-13T06:22:15;13.97;;;9.93;;
16512;SDS011;8369;48.030;11.598;2023-05-13T06:24:42;14.70;;;10.10;;
16512;SDS011;8369;48.030;11.598;2023-05-13T06:27:09;14.73;;;10.70;;
16512;SDS011;8369;48.030;11.598;2023-05-13T06:29:47;15.13;;;10.27;;
16512;SDS011;8369;48.030;11.598;2023-05-13T06:32:13;15.30;;;9.90;;
16512;SDS011;8369;48.030;11.598;2023-05-13T06:34:41;15.23;;;10.27;;
16512;SDS011;8369;48.030;11.598;2023-05-13T06:37:13;16.97;;;10.90;;
16512;SDS011;8369;48.030;11.598;2023-05-13T06:39:39;13.97;;;9.67;;
16512;SDS011;8369;48.030;11.598;2023-05-13T06:42:09;13.73;;;9.90;;
16512;SDS011;8369;48.030;11.598;2023-05-13T06:44:36;13.97;;;9.40;;
16512;SDS011;8369;48.030;11.598;2023-05-13T06:47:07;15.70;;;10.43;;
16512;SDS011;8369;48.030;11.598;2023-05-13T06:49:38;13.67;;;9.07;;
16512;SDS011;8369;48.030;11.598;2023-05-13T06:52:05;18.20;;;11.40;;
16512;SDS011;8369;48.030;11.598;2023-05-13T06:54:33;13.00;;;9.40;;
16512;SDS011;8369;48.030;11.598;2023-05-13T06:57:01;14.87;;;9.87;;
16512;SDS011;8369;48.030;11.598;2023-05-13T06:59:30;14.53;;;9.53;;
16512;SDS011;8369;48.030;11.598;2023-05-13T07:01:57;14.13;;;9.57;;
16512;SDS011;8369;48.030;11.598;2023-05-13T07:04:25;12.87;;;9.20;;
16512;SDS011;8369;48.030;11.598;2023-05-13T07:06:53;14.03;;;10.30;;
16512;SDS011;8369;48.030;11.598;2023-05-13T07:09:23;14.70;;;9.87;;
16512;SDS011;8369;48.030;11.598;2023-05-13T07:11:54;12.40;;;8.73;;
16512;SDS011;8369;48.030;11.598;2023-05-13T07:14:29;16.87;;;9.70;;
16512;SDS011;8369;48.030;11.598;2023-05-13T07:16:56;13.43;;;9.03;;
16512;SDS011;8369;48.030;11.598;2023-05-13T07:19:23;19.30;;;9.67;;
16512;SDS011;8369;48.030;11.598;2023-05-13T07:21:59;15.37;;;10.33;;
16512;SDS011;8369;48.030;11.598;2023-05-13T07:24:26;15.30;;;10.47;;
16512;SDS011;8369;48.030;11.598;2023-05-13T07:26:55;13.00;;;9.47;;
16512;SDS011;8369;48.030;11.598;2023-05-13T07:29:24;14.70;;;9.20;;
16512;SDS011;8369;48.030;11.598;2023-05-13T07:31:50;13.63;;;8.77;;
16512;SDS011;8369;48.030;11.598;2023-05-13T07:34:21;14.23;;;10.50;;
16512;SDS011;8369;48.030;11.598;2023-05-13T07:36:47;13.47;;;10.07;;
16512;SDS011;8369;48.030;11.598;2023-05-13T07:39:14;17.00;;;10.30;;
16512;SDS011;8369;48.030;11.598;2023-05-13T07:41:41;12.37;;;9.70;;
16512;SDS011;8369;48.030;11.598;2023-05-13T07:44:11;13.83;;;10.13;;
16512;SDS011;8369;48.030;11.598;2023-05-13T07:46:38;14.77;;;10.00;;
16512;SDS011;8369;48.030;11.598;2023-05-13T07:49:05;13.33;;;9.23;;
16512;SDS011;8369;48.030;11.598;2023-05-13T07:51:33;14.33;;;9.73;;
16512;SDS011;8369;48.030;11.598;2023-05-13T07:54:01;14.30;;;9.73;;
16512;SDS011;8369;48.030;11.598;2023-05-13T07:56:27;14.50;;;9.37;;
16512;SDS011;8369;48.030;11.598;2023-05-13T07:58:56;14.33;;;8.67;;
16512;SDS011;8369;48.030;11.598;2023-05-13T08:01:22;14.13;;;9.33;;
16512;SDS011;8369;48.030;11.598;2023-05-13T08:03:50;12.53;;;9.53;;
16512;SDS011;8369;48.030;11.598;2023-05-13T08:06:17;15.97;;;9.20;;
16512;SDS011;8369;48.030;11.598;2023-05-13T08:08:45;14.27;;;9.53;;
16512;SDS011;8369;48.030;11.598;2023-05-13T08:11:11;13.47;;;9.20;;
16512;SDS011;8369;48.030;11.598;2023-05-13T08:13:38;14.90;;;9.57;;
16512;SDS011;8369;48.030;11.598;2023-05-13T08:16:04;12.30;;;8.60;;
16512;SDS011;8369;48.030;11.598;2023-05-13T08:18:34;11.43;;;8.93;;
16512;SDS011;8369;48.030;11.598;2023-05-13T08:21:00;14.40;;;9.67;;
16512;SDS011;8369;48.030;11.598;2023-05-13T08:23:31;18.73;;;9.97;;
16512;SDS011;8369;48.030;11.598;2023-05-13T08:25:57;13.50;;;8.50;;
16512;SDS011;8369;48.030;11.598;2023-05-13T08:28:24;14.00;;;8.77;;
16512;SDS011;8369;48.030;11.598;2023-05-13T08:30:53;13.80;;;9.00;;
16512;SDS011;8369;48.030;11.598;2023-05-13T08:33:31;11.50;;;8.57;;
16512;SDS011;8369;48.030;11.598;2023-05-13T08:35:58;13.00;;;9.20;;
16512;SDS011;8369;48.030;11.598;2023-05-13T08:38:25;11.97;;;8.20;;
16512;SDS011;8369;48.030;11.598;2023-05-13T08:40:54;12.10;;;9.27;;
16512;SDS011;8369;48.030;11.598;2023-05-13T08:43:22;13.10;;;8.57;;
16512;SDS011;8369;48.030;11.598;2023-05-13T08:46:03;11.90;;;8.93;;
16512;SDS011;8369;48.030;11.598;2023-05-13T08:48:39;12.20;;;9.10;;
16512;SDS011;8369;48.030;11.598;2023-05-13T08:51:08;16.23;;;9.40;;
16512;SDS011;8369;48.030;11.598;2023-05-13T08:53:41;15.13;;;9.30;;
16512;SDS011;8369;48.030;11.598;2023-05-13T08:56:09;12.63;;;8.83;;
16512;SDS011;8369;48.030;11.598;2023-05-13T08:58:40;12.10;;;8.23;;
16512;SDS011;8369;48.030;11.598;2023-05-13T09:01:06;13.23;;;8.60;;
16512;SDS011;8369;48.030;11.598;2023-05-13T09:03:35;13.60;;;9.10;;
16512;SDS011;8369;48.030;11.598;2023-05-13T09:06:16;12.33;;;9.10;;
16512;SDS011;8369;48.030;11.598;2023-05-13T09:08:43;13.40;;;8.60;;
16512;SDS011;8369;48.030;11.598;2023-05-13T09:11:10;13.30;;;8.97;;
16512;SDS011;8369;48.030;11.598;2023-05-13T09:13:41;13.77;;;9.20;;
16512;SDS011;8369;48.030;11.598;2023-05-13T09:16:10;11.57;;;8.90;;
16512;SDS011;8369;48.030;11.598;2023-05-13T09:18:56;13.60;;;9.07;;
16512;SDS011;8369;48.030;11.598;2023-05-13T09:21:28;13.00;;;9.40;;
16512;SDS011;8369;48.030;11.598;2023-05-13T09:26:37;12.80;;;8.67;;
16512;SDS011;8369;48.030;11.598;2023-05-13T09:29:14;11.70;;;8.57;;
16512;SDS011;8369;48.030;11.598;2023-05-13T09:32:00;15.37;;;9.50;;
16512;SDS011;8369;48.030;11.598;2023-05-13T09:34:31;11.30;;;8.53;;
16512;SDS011;8369;48.030;11.598;2023-05-13T09:37:02;14.87;;;8.73;;
16512;SDS011;8369;48.030;11.598;2023-05-13T09:39:31;10.83;;;8.30;;
16512;SDS011;8369;48.030;11.598;2023-05-13T09:42:04;9.53;;;7.57;;
16512;SDS011;8369;48.030;11.598;2023-05-13T09:44:45;10.43;;;7.23;;
16512;SDS011;8369;48.030;11.598;2023-05-13T09:47:17;11.43;;;7.90;;
16512;SDS011;8369;48.030;11.598;2023-05-13T09:49:44;11.97;;;7.33;;
16512;SDS011;8369;48.030;11.598;2023-05-13T09:52:20;12.53;;;7.77;;
16512;SDS011;8369;48.030;11.598;2023-05-13T09:54:47;10.47;;;7.37;;
16512;SDS011;8369;48.030;11.598;2023-05-13T09:57:13;10.67;;;8.37;;
16512;SDS011;8369;48.030;11.598;2023-05-13T09:59:40;9.90;;;7.33;;
16512;SDS011;8369;48.030;11.598;2023-05-13T10:02:06;10.73;;;8.10;;
16512;SDS011;8369;48.030;11.598;2023-05-13T10:04:34;9.83;;;7.83;;
16512;SDS011;8369;48.030;11.598;2023-05-13T10:07:01;11.83;;;7.70;;
16512;SDS011;8369;48.030;11.598;2023-05-13T10:09:33;10.10;;;7.47;;
16512;SDS011;8369;48.030;11.598;2023-05-13T10:12:01;11.67;;;7.63;;
16512;SDS011;8369;48.030;11.598;2023-05-13T10:14:31;10.97;;;8.27;;
16512;SDS011;8369;48.030;11.598;2023-05-13T10:16:58;10.40;;;7.60;;
16512;SDS011;8369;48.030;11.598;2023-05-13T10:19:25;10.83;;;7.97;;
16512;SDS011;8369;48.030;11.598;2023-05-13T10:21:53;12.57;;;8.20;;
16512;SDS011;8369;48.030;11.598;2023-05-13T10:24:22;10.70;;;7.67;;
16512;SDS011;8369;48.030;11.598;2023-05-13T10:26:58;12.10;;;7.67;;
16512;SDS011;8369;48.030;11.598;2023-05-13T10:29:27;10.93;;;7.53;;
16512;SDS011;8369;48.030;11.598;2023-05-13T10:31:54;8.60;;;7.17;;
16512;SDS011;8369;48.030;11.598;2023-05-13T10:34:31;10.93;;;7.70;;
16512;SDS011;8369;48.030;11.598;2023-05-13T10:38:00;9.50;;;7.27;;
16512;SDS011;8369;48.030;11.598;2023-05-13T10:45:26;9.47;;;6.57;;
16512;SDS011;8369;48.030;11.598;2023-05-13T10:47:53;13.13;;;7.60;;
16512;SDS011;8369;48.030;11.598;2023-05-13T10:50:21;9.33;;;6.87;;
16512;SDS011;8369;48.030;11.598;2023-05-13T10:53:00;10.53;;;8.20;;
16512;SDS011;8369;48.030;11.598;2023-05-13T10:55:30;9.23;;;7.37;;
16512;SDS011;8369;48.030;11.598;2023-05-13T10:58:10;9.67;;;7.20;;
16512;SDS011;8369;48.030;11.598;2023-05-13T11:00:41;10.70;;;7.70;;
16512;SDS011;8369;48.030;11.598;2023-05-13T11:03:25;9.80;;;7.30;;
16512;SDS011;8369;48.030;11.598;2023-05-13T11:05:59;11.50;;;7.63;;
16512;SDS011;8369;48.030;11.598;2023-05-13T11:08:53;8.53;;;7.03;;
16512;SDS011;8369;48.030;11.598;2023-05-13T11:11:25;11.43;;;8.00;;
16512;SDS011;8369;48.030;11.598;2023-05-13T11:14:17;11.17;;;8.30;;
16512;SDS011;8369;48.030;11.598;2023-05-13T11:17:05;13.60;;;7.20;;
16512;SDS011;8369;48.030;11.598;2023-05-13T11:19:35;10.93;;;7.70;;
16512;SDS011;8369;48.030;11.598;2023-05-13T11:22:14;10.53;;;7.27;;
16512;SDS011;8369;48.030;11.598;2023-05-13T11:27:37;10.33;;;7.77;;
16512;SDS011;8369;48.030;11.598;2023-05-13T11:30:05;10.40;;;8.50;;
16512;SDS011;8369;48.030;11.598;2023-05-13T11:35:20;11.40;;;7.63;;
16512;SDS011;8369;48.030;11.598;2023-05-13T11:37:47;8.67;;;6.93;;
16512;SDS011;8369;48.030;11.598;2023-05-13T11:40:20;13.43;;;8.10;;
16512;SDS011;8369;48.030;11.598;2023-05-13T11:42:51;9.97;;;8.20;;
16512;SDS011;8369;48.030;11.598;2023-05-13T11:45:19;9.90;;;7.17;;
16512;SDS011;8369;48.030;11.598;2023-05-13T11:47:51;10.13;;;7.83;;
16512;SDS011;8369;48.030;11.598;2023-05-13T11:50:20;11.87;;;8.20;;
16512;SDS011;8369;48.030;11.598;2023-05-13T11:52:51;10.73;;;7.37;;
16512;SDS011;8369;48.030;11.598;2023-05-13T11:55:25;8.33;;;6.23;;
16512;SDS011;8369;48.030;11.598;2023-05-13T11:57:54;10.80;;;6.77;;
16512;SDS011;8369;48.030;11.598;2023-05-13T12:00:27;8.03;;;6.57;;
16512;SDS011;8369;48.030;11.598;2023-05-13T12:03:07;8.53;;;6.50;;
16512;SDS011;8369;48.030;11.598;2023-05-13T12:05:38;10.73;;;6.83;;
16512;SDS011;8369;48.030;11.598;2023-05-13T12:08:05;9.37;;;7.23;;
16512;SDS011;8369;48.030;11.598;2023-05-13T12:10:41;8.80;;;6.80;;
16512;SDS011;8369;48.030;11.598;2023-05-13T12:13:10;7.73;;;5.60;;
16512;SDS011;8369;48.030;11.598;2023-05-13T12:15:37;7.00;;;6.30;;
16512;SDS011;8369;48.030;11.598;2023-05-13T12:18:04;8.17;;;6.17;;
16512;SDS011;8369;48.030;11.598;2023-05-13T12:20:33;6.47;;;5.77;;
16512;SDS011;8369;48.030;11.598;2023-05-13T12:22:59;6.37;;;5.43;;
16512;SDS011;8369;48.030;11.598;2023-05-13T12:28:25;6.77;;;5.07;;
16512;SDS011;8369;48.030;11.598;2023-05-13T12:30:58;6.50;;;5.17;;
16512;SDS011;8369;48.030;11.598;2023-05-13T12:33:39;5.70;;;4.60;;
16512;SDS011;8369;48.030;11.598;2023-05-13T12:36:18;6.60;;;4.83;;
16512;SDS011;8369;48.030;11.598;2023-05-13T12:38:59;7.70;;;5.37;;
16512;SDS011;8369;48.030;11.598;2023-05-13T12:41:31;5.87;;;5.10;;
16512;SDS011;8369;48.030;11.598;2023-05-13T12:44:01;6.77;;;5.80;;
16512;SDS011;8369;48.030;11.598;2023-05-13T12:46:30;8.13;;;5.17;;
16512;SDS011;8369;48.030;11.598;2023-05-13T12:48:58;6.60;;;5.20;;
16512;SDS011;8369;48.030;11.598;2023-05-13T12:51:25;7.03;;;4.87;;
16512;SDS011;8369;48.030;11.598;2023-05-13T12:54:01;7.60;;;5.10;;
16512;SDS011;8369;48.030;11.598;2023-05-13T12:56:31;5.47;;;4.90;;
16512;SDS011;8369;48.030;11.598;2023-05-13T12:58:57;5.30;;;4.73;;
16512;SDS011;8369;48.030;11.598;2023-05-13T13:01:23;6.10;;;5.03;;
16512;SDS011;8369;48.030;11.598;2023-05-13T13:03:50;5.93;;;4.57;;
16512;SDS011;8369;48.030;11.598;2023-05-13T13:06:17;4.93;;;4.43;;
16512;SDS011;8369;48.030;11.598;2023-05-13T13:08:44;4.87;;;4.37;;
16512;SDS011;8369;48.030;11.598;2023-05-13T13:11:11;4.67;;;4.17;;
16512;SDS011;8369;48.030;11.598;2023-05-13T13:13:43;4.97;;;4.47;;
16512;SDS011;8369;48.030;11.598;2023-05-13T13:16:13;6.47;;;5.30;;
16512;SDS011;8369;48.030;11.598;2023-05-13T13:18:40;7.37;;;4.83;;
16512;SDS011;8369;48.030;11.598;2023-05-13T13:21:11;5.90;;;4.90;;
16512;SDS011;8369;48.030;11.598;2023-05-13T13:23:37;6.13;;;5.20;;
16512;SDS011;8369;48.030;11.598;2023-05-13T13:26:04;5.40;;;4.83;;
16512;SDS011;8369;48.030;11.598;2023-05-13T13:28:30;5.30;;;4.23;;
16512;SDS011;8369;48.030;11.598;2023-05-13T13:30:57;4.50;;;4.10;;
16512;SDS011;8369;48.030;11.598;2023-05-13T13:33:25;5.27;;;4.17;;
16512;SDS011;8369;48.030;11.598;2023-05-13T13:35:53;4.70;;;4.20;;
16512;SDS011;8369;48.030;11.598;2023-05-13T13:38:20;5.00;;;4.40;;
16512;SDS011;8369;48.030;11.598;2023-05-13T13:40:47;5.03;;;4.30;;
16512;SDS011;8369;48.030;11.598;2023-05-13T13:43:14;5.07;;;4.30;;
16512;SDS011;8369;48.030;11.598;2023-05-13T13:45:42;4.73;;;4.23;;
16512;SDS011;8369;48.030;11.598;2023-05-13T13:48:08;5.20;;;4.00;;
16512;SDS011;8369;48.030;11.598;2023-05-13T13:50:38;6.70;;;4.30;;
16512;SDS011;8369;48.030;11.598;2023-05-13T13:53:18;4.63;;;4.10;;
16512;SDS011;8369;48.030;11.598;2023-05-13T13:55:45;4.27;;;3.60;;
16512;SDS011;8369;48.030;11.598;2023-05-13T13:58:12;5.70;;;4.73;;
16512;SDS011;8369;48.030;11.598;2023-05-13T14:00:39;4.27;;;3.87;;
16512;SDS011;8369;48.030;11.598;2023-05-13T14:03:09;5.50;;;4.13;;
16512;SDS011;8369;48.030;11.598;2023-05-13T14:05:35;4.97;;;4.47;;
16512;SDS011;8369;48.030;11.598;2023-05-13T14:08:04;4.73;;;4.23;;
16512;SDS011;8369;48.030;11.598;2023-05-13T14:10:31;4.93;;;4.43;;
16512;SDS011;8369;48.030;11.598;2023-05-13T14:12:58;5.23;;;4.23;;
16512;SDS011;8369;48.030;11.598;2023-05-13T14:15:28;5.30;;;4.63;;
16512;SDS011;8369;48.030;11.598;2023-05-13T14:17:55;5.37;;;4.60;;
16512;SDS011;8369;48.030;11.598;2023-05-13T14:20:22;5.20;;;4.37;;
16512;SDS011;8369;48.030;11.598;2023-05-13T14:22:50;5.57;;;4.57;;
16512;SDS011;8369;48.030;11.598;2023-05-13T14:25:17;4.67;;;4.17;;
16512;SDS011;8369;48.030;11.598;2023-05-13T14:27:44;4.10;;;3.70;;
16512;SDS011;8369;48.030;11.598;2023-05-13T14:30:14;4.40;;;4.00;;
16512;SDS011;8369;48.030;11.598;2023-05-13T14:32:41;4.70;;;4.20;;
16512;SDS011;8369;48.030;11.598;2023-05-13T14:35:10;4.30;;;3.90;;
16512;SDS011;8369;48.030;11.598;2023-05-13T14:37:39;4.13;;;3.73;;
16512;SDS011;8369;48.030;11.598;2023-05-13T14:40:07;4.23;;;3.83;;
16512;SDS011;8369;48.030;11.598;2023-05-13T14:42:34;3.93;;;3.47;;
16512;SDS011;8369;48.030;11.598;2023-05-13T14:45:00;4.17;;;3.50;;
16512;SDS011;8369;48.030;11.598;2023-05-13T14:47:30;3.57;;;3.27;;
16512;SDS011;8369;48.030;11.598;2023-05-13T14:49:56;4.13;;;3.20;;
16512;SDS011;8369;48.030;11.598;2023-05-13T14:52:22;3.60;;;3.30;;
16512;SDS011;8369;48.030;11.598;2023-05-13T14:54:49;3.70;;;3.33;;
16512;SDS011;8369;48.030;11.598;2023-05-13T14:57:16;4.00;;;3.43;;
16512;SDS011;8369;48.030;11.598;2023-05-13T14:59:42;3.30;;;3.00;;
16512;SDS011;8369;48.030;11.598;2023-05-13T15:02:09;3.50;;;3.07;;
16512;SDS011;8369;48.030;11.598;2023-05-13T15:04:37;2.83;;;2.53;;
16512;SDS011;8369;48.030;11.598;2023-05-13T15:07:04;3.67;;;2.90;;
16512;SDS011;8369;48.030;11.598;2023-05-13T15:09:34;3.50;;;2.70;;
16512;SDS011;8369;48.030;11.598;2023-05-13T15:12:01;2.83;;;2.53;;
16512;SDS011;8369;48.030;11.598;2023-05-13T15:14:28;3.13;;;2.83;;
16512;SDS011;8369;48.030;11.598;2023-05-13T15:16:55;3.40;;;3.10;;
16512;SDS011;8369;48.030;11.598;2023-05-13T15:19:24;2.90;;;2.60;;
16512;SDS011;8369;48.030;11.598;2023-05-13T15:21:50;2.67;;;2.37;;
16512;SDS011;8369;48.030;11.598;2023-05-13T15:24:17;2.83;;;2.60;;